AirNav   ProFlight Series 2 Aviation Headset
 
 473 users online  

F99 Holdenville Municipal Airport
Holdenville, Oklahoma, USA

GOING TO HOLDENVILLE?


FAA INFORMATION EFFECTIVE 16 JULY 2020

Location

FAA Identifier: F99
Lat/Long: 35-05-09.1000N 096-25-00.0000W
35-05.151667N 096-25.000000W
35.0858611,-96.4166667
(estimated)
Elevation: 860.9 ft. / 262.4 m (surveyed)
Variation: 06E (1995)
From city: 1 mile NW of HOLDENVILLE, OK
Time zone: UTC -5 (UTC -6 during Standard Time)
Zip code: 74848

Airport Operations

Airport use: Open to the public
Activation date: 03/1943
Control tower: no
ARTCC: FORT WORTH CENTER
FSS: MC ALESTER FLIGHT SERVICE STATION
NOTAMs facility: MLC (NOTAM-D service available)
Attendance: UNATTND
Wind indicator: lighted
Segmented circle: yes
Lights: SS-SR
Beacon: white-green (lighted land airport)
Operates sunset to sunrise.

Airport Communications

CTAF: 122.9
WX AWOS-3 at SRE (17 nm NW): 118.625 (405-382-0111)
  • APCH/DEP SVC PRVDD BY FORT WORTH ARTCC ON FREQS 132.2/338.35 (MC ALESTER RCAG).

Nearby radio navigation aids

VOR radial/distance  VOR name  Freq  Var
ADHr030/21.1ADA VOR/DME117.8006E

 
NDB name  Hdg/Dist  Freq  Var  ID
SEMINOLE125/16.927806ESRE ... .-. .
HENRYETTA222/27.526704EHET .... . -

Airport Services

Fuel available: 100LL
FOR 100LL FUEL SERVICE CALL 405-380-7988
Parking: tiedowns
Airframe service: NONE
Powerplant service: NONE
Bottled oxygen: NONE
Bulk oxygen: NONE

Runway Information

Runway 17/35

Dimensions: 3251 x 100 ft. / 991 x 30 m
Surface: concrete, in poor condition
SEVERE CRACKING, SPALLING AND DETERIORATION.
Weight bearing capacity: 
Single wheel: 30.0
Double wheel: 42.0
Runway edge lights: medium intensity
Runway edge markings: NON-STANDARD RUNWAY CENTERLINE MARKINGS
RUNWAY 17  RUNWAY 35
Latitude: 35-05.419883N35-04.884015N
Longitude: 096-24.999857W096-24.999588W
Elevation: 860.8 ft.856.1 ft.
Traffic pattern: leftleft
Runway heading: 174 magnetic, 180 true354 magnetic, 360 true
Markings: basic, in fair conditionbasic, in fair condition
Touchdown point: yes, no lightsyes, no lights
Obstructions: none25 ft. pline, marked and lighted, 712 ft. from runway, 20:1 slope to clear

Airport Ownership and Management from official FAA records

Ownership: Publicly-owned
Owner: CITY OF HOLDENVILLE
PO BOX 789, 100 N. CREEK
HOLDENVILLE, OK 74848
Phone 405-379-3397
Manager: JAMES WELCH
100 N. CREEK, 100 N. CREEK
HOLDENVILLE, OK 74848
Phone (405) 380-7988
CELL PHONE # 404-380-7988

Airport Operational Statistics

Aircraft based on the field: 10
Single engine airplanes: 9
Multi engine airplanes: 1
    
Aircraft operations: avg 43/week *
67% local general aviation
33% transient general aviation
* for 12-month period ending 02 August 2018

Additional Remarks

125 FT AGL SILO .3 NM W RY 35 THLD.
FOR CD CTC FORT WORTH ARTCC AT 817-858-7584.

Instrument Procedures

NOTE: All procedures below are presented as PDF files. If you need a reader for these files, you should download the free Adobe Reader.

NOT FOR NAVIGATION. Please procure official charts for flight.
FAA instrument procedures published for use from 16 July 2020 at 0901Z to 13 August 2020 at 0900Z.

 
IAPs - Instrument Approach Procedures
RNAV (GPS) RWY 17   download (202KB)
RNAV (GPS) RWY 35   download (204KB)
NOTE: Special Take-Off Minimums/Departure Procedures apply   download (408KB)

Other nearby airports with instrument procedures:

KSRE - Seminole Municipal Airport (17 nm NW)
KADH - Ada Regional Airport (21 nm SW)
F10 - Henryetta Municipal Airport (28 nm NE)
O47 - Prague Municipal Airport (28 nm NW)
KSNL - Shawnee Regional Airport (31 nm NW)
 
Loc | Ops | Rwys | IFR | FBO | Links
Com | Nav | Svcs | Stats | Notes
Area around F99 (Holdenville Municipal Airport)
 
Road maps at: MapQuest Bing Google
 
Aerial photo
WARNING: Photo may not be current or correct
Aerial photo of F99 (Holdenville Municipal Airport)
Photo by James Herrington Sr.
Photo taken 17-May-2018
looking north.

Do you have a better or more recent aerial photo of Holdenville Municipal Airport that you would like to share? If so, please send us your photo.

 
Sectional chart

 
Airport distance calculator
Flying to Holdenville Municipal Airport? Find the distance to fly.

From to F99

Sunrise and sunset
Times for 03-Aug-2020
 Local
(UTC-5)
 Zulu
(UTC)
Morning civil twilight06:1111:11
Sunrise06:3811:38
Sunset20:2501:25
Evening civil twilight20:5301:53

Current date and time
Zulu (UTC)  03-Aug-2020 10:22:00
Local (UTC-5)  03-Aug-2020 05:22:00
 
METAR
KSRE 
17nm NW 
030955Z AUTO 30005KT 10SM CLR 17/15 A3006 RMK AO2
KADH 
21nm SW 
030955Z AUTO 01005KT 10SM CLR 18/16 A3006 RMK AO2
KSNL 
31nm NW 
030955Z AUTO 01004KT 10SM CLR 17/15 A3006 RMK AO2 T01720147
KMLC 
33nm E 
030953Z AUTO 00000KT 10SM FEW075 FEW110 17/16 A3004 RMK AO2 SLP163 T01720161
TAF
KMLC 
33nm E 
030520Z 0306/0406 01004KT P6SM SCT080 FM031600 36008KT P6SM SCT050 SCT250 FM040100 01004KT P6SM SCT250
NOTAMs
Click for the latest NOTAMs
NOTAMs are issued by the DoD/FAA and will open in a separate window not controlled by AirNav.

 

 
 

FBO, Fuel Providers, and Aircraft Ground Support

  
 Business Name 
 
 Contact 
 
 Services / Description 
 
Fuel Prices
 
Comments
  
Holdenville Municipal Airport 405-380-7988
no information available

If you are affiliated with Holdenville Municipal Airport and would like to show here your services, contact info, web link, logo, and more, click here
no prices available
 
   write
Update Fuel Prices
 

Would you like to see your business listed on this page?

 If your business provides an interesting product or service to pilots, flight crews, aircraft, or users of the Holdenville Municipal Airport, you should consider listing it here.  To start the listing process, click on the button below
 
Add a business
 

Other Pages about Holdenville Municipal Airport

Update a link
 
Copyright © AirNav, LLC. All rights reserved. Privacy Policy  Contact